sensor_id;sensor_type;location;lat;lon;timestamp;P1;durP1;ratioP1;P2;durP2;ratioP2
47669;SDS011;33408;52.062;11.722;2024-02-04T00:01:58;10.63;;;4.13;;
47669;SDS011;33408;52.062;11.722;2024-02-04T00:04:26;11.52;;;4.15;;
47669;SDS011;33408;52.062;11.722;2024-02-04T00:06:53;11.80;;;4.53;;
47669;SDS011;33408;52.062;11.722;2024-02-04T00:09:20;9.18;;;4.93;;
47669;SDS011;33408;52.062;11.722;2024-02-04T00:11:49;10.77;;;5.25;;
47669;SDS011;33408;52.062;11.722;2024-02-04T00:14:16;12.90;;;4.60;;
47669;SDS011;33408;52.062;11.722;2024-02-04T00:16:42;14.35;;;4.82;;
47669;SDS011;33408;52.062;11.722;2024-02-04T00:19:09;8.35;;;4.72;;
47669;SDS011;33408;52.062;11.722;2024-02-04T00:21:37;8.23;;;4.55;;
47669;SDS011;33408;52.062;11.722;2024-02-04T00:24:04;11.88;;;5.05;;
47669;SDS011;33408;52.062;11.722;2024-02-04T00:26:31;9.40;;;4.93;;
47669;SDS011;33408;52.062;11.722;2024-02-04T00:28:57;12.05;;;5.18;;
47669;SDS011;33408;52.062;11.722;2024-02-04T00:31:24;12.30;;;5.80;;
47669;SDS011;33408;52.062;11.722;2024-02-04T00:33:51;12.10;;;5.47;;
47669;SDS011;33408;52.062;11.722;2024-02-04T00:36:17;11.48;;;5.63;;
47669;SDS011;33408;52.062;11.722;2024-02-04T00:38:45;13.00;;;5.32;;
47669;SDS011;33408;52.062;11.722;2024-02-04T00:41:12;8.52;;;5.32;;
47669;SDS011;33408;52.062;11.722;2024-02-04T00:43:38;13.40;;;6.13;;
47669;SDS011;33408;52.062;11.722;2024-02-04T00:46:05;10.13;;;5.70;;
47669;SDS011;33408;52.062;11.722;2024-02-04T00:48:33;11.57;;;5.55;;
47669;SDS011;33408;52.062;11.722;2024-02-04T00:50:59;11.55;;;4.32;;
47669;SDS011;33408;52.062;11.722;2024-02-04T00:53:26;8.18;;;4.40;;
47669;SDS011;33408;52.062;11.722;2024-02-04T00:55:59;8.40;;;4.57;;
47669;SDS011;33408;52.062;11.722;2024-02-04T00:58:26;12.23;;;4.63;;
47669;SDS011;33408;52.062;11.722;2024-02-04T01:00:53;15.18;;;4.72;;
47669;SDS011;33408;52.062;11.722;2024-02-04T01:03:20;9.68;;;4.30;;
47669;SDS011;33408;52.062;11.722;2024-02-04T01:05:46;10.77;;;4.03;;
47669;SDS011;33408;52.062;11.722;2024-02-04T01:08:13;9.15;;;3.70;;
47669;SDS011;33408;52.062;11.722;2024-02-04T01:10:40;8.15;;;4.32;;
47669;SDS011;33408;52.062;11.722;2024-02-04T01:13:08;8.52;;;3.67;;
47669;SDS011;33408;52.062;11.722;2024-02-04T01:15:34;12.93;;;4.82;;
47669;SDS011;33408;52.062;11.722;2024-02-04T01:18:01;8.07;;;3.95;;
47669;SDS011;33408;52.062;11.722;2024-02-04T01:20:27;7.53;;;3.33;;
47669;SDS011;33408;52.062;11.722;2024-02-04T01:22:54;10.63;;;3.80;;
47669;SDS011;33408;52.062;11.722;2024-02-04T01:25:20;10.30;;;3.95;;
47669;SDS011;33408;52.062;11.722;2024-02-04T01:27:47;8.85;;;3.50;;
47669;SDS011;33408;52.062;11.722;2024-02-04T01:30:15;9.27;;;3.55;;
47669;SDS011;33408;52.062;11.722;2024-02-04T01:32:42;7.82;;;3.40;;
47669;SDS011;33408;52.062;11.722;2024-02-04T01:35:08;6.30;;;3.08;;
47669;SDS011;33408;52.062;11.722;2024-02-04T01:37:35;11.60;;;3.05;;
47669;SDS011;33408;52.062;11.722;2024-02-04T01:40:01;7.13;;;2.88;;
47669;SDS011;33408;52.062;11.722;2024-02-04T01:42:29;8.35;;;3.95;;
47669;SDS011;33408;52.062;11.722;2024-02-04T01:44:56;9.05;;;3.28;;
47669;SDS011;33408;52.062;11.722;2024-02-04T01:47:24;8.95;;;3.75;;
47669;SDS011;33408;52.062;11.722;2024-02-04T01:49:50;9.40;;;3.03;;
47669;SDS011;33408;52.062;11.722;2024-02-04T01:52:17;8.63;;;3.47;;
47669;SDS011;33408;52.062;11.722;2024-02-04T01:54:44;10.60;;;3.72;;
47669;SDS011;33408;52.062;11.722;2024-02-04T01:57:11;9.77;;;3.30;;
47669;SDS011;33408;52.062;11.722;2024-02-04T01:59:38;8.63;;;3.63;;
47669;SDS011;33408;52.062;11.722;2024-02-04T02:02:05;8.95;;;3.88;;
47669;SDS011;33408;52.062;11.722;2024-02-04T02:04:34;9.85;;;3.33;;
47669;SDS011;33408;52.062;11.722;2024-02-04T02:07:00;8.27;;;3.75;;
47669;SDS011;33408;52.062;11.722;2024-02-04T02:09:28;8.38;;;3.70;;
47669;SDS011;33408;52.062;11.722;2024-02-04T02:11:57;11.68;;;3.88;;
47669;SDS011;33408;52.062;11.722;2024-02-04T02:14:30;11.00;;;3.78;;
47669;SDS011;33408;52.062;11.722;2024-02-04T02:17:00;9.85;;;3.60;;
47669;SDS011;33408;52.062;11.722;2024-02-04T02:22:06;7.22;;;3.35;;
47669;SDS011;33408;52.062;11.722;2024-02-04T02:24:44;7.43;;;3.53;;
47669;SDS011;33408;52.062;11.722;2024-02-04T02:27:13;7.55;;;4.63;;
47669;SDS011;33408;52.062;11.722;2024-02-04T02:29:39;10.93;;;4.60;;
47669;SDS011;33408;52.062;11.722;2024-02-04T02:32:06;8.55;;;4.53;;
47669;SDS011;33408;52.062;11.722;2024-02-04T02:34:33;10.20;;;3.88;;
47669;SDS011;33408;52.062;11.722;2024-02-04T02:37:02;10.13;;;4.72;;
47669;SDS011;33408;52.062;11.722;2024-02-04T02:39:36;9.30;;;4.57;;
47669;SDS011;33408;52.062;11.722;2024-02-04T02:42:10;7.88;;;3.90;;
47669;SDS011;33408;52.062;11.722;2024-02-04T02:44:38;10.30;;;4.53;;
47669;SDS011;33408;52.062;11.722;2024-02-04T02:47:05;8.73;;;4.43;;
47669;SDS011;33408;52.062;11.722;2024-02-04T02:49:32;10.25;;;4.32;;
47669;SDS011;33408;52.062;11.722;2024-02-04T02:51:59;9.88;;;4.75;;
47669;SDS011;33408;52.062;11.722;2024-02-04T02:54:25;8.50;;;4.93;;
47669;SDS011;33408;52.062;11.722;2024-02-04T02:56:52;9.52;;;5.10;;
47669;SDS011;33408;52.062;11.722;2024-02-04T02:59:20;11.55;;;5.65;;
47669;SDS011;33408;52.062;11.722;2024-02-04T03:01:47;10.43;;;5.05;;
47669;SDS011;33408;52.062;11.722;2024-02-04T03:04:13;15.68;;;6.13;;
47669;SDS011;33408;52.062;11.722;2024-02-04T03:06:40;9.35;;;5.45;;
47669;SDS011;33408;52.062;11.722;2024-02-04T03:09:06;9.50;;;4.60;;
47669;SDS011;33408;52.062;11.722;2024-02-04T03:11:33;11.82;;;5.70;;
47669;SDS011;33408;52.062;11.722;2024-02-04T03:14:01;8.35;;;4.80;;
47669;SDS011;33408;52.062;11.722;2024-02-04T03:16:29;9.38;;;5.32;;
47669;SDS011;33408;52.062;11.722;2024-02-04T03:18:56;14.35;;;5.60;;
47669;SDS011;33408;52.062;11.722;2024-02-04T03:21:22;11.07;;;5.68;;
47669;SDS011;33408;52.062;11.722;2024-02-04T03:23:49;10.05;;;4.93;;
47669;SDS011;33408;52.062;11.722;2024-02-04T03:26:19;9.48;;;5.45;;
47669;SDS011;33408;52.062;11.722;2024-02-04T03:28:45;14.95;;;6.10;;
47669;SDS011;33408;52.062;11.722;2024-02-04T03:31:12;10.90;;;6.05;;
47669;SDS011;33408;52.062;11.722;2024-02-04T03:33:46;11.05;;;6.15;;
47669;SDS011;33408;52.062;11.722;2024-02-04T03:36:15;9.75;;;5.20;;
47669;SDS011;33408;52.062;11.722;2024-02-04T03:38:45;11.57;;;5.85;;
47669;SDS011;33408;52.062;11.722;2024-02-04T03:41:12;12.07;;;5.50;;
47669;SDS011;33408;52.062;11.722;2024-02-04T03:43:38;10.90;;;5.43;;
47669;SDS011;33408;52.062;11.722;2024-02-04T03:46:05;12.35;;;5.90;;
47669;SDS011;33408;52.062;11.722;2024-02-04T03:48:32;13.05;;;5.82;;
47669;SDS011;33408;52.062;11.722;2024-02-04T03:51:00;14.30;;;5.68;;
47669;SDS011;33408;52.062;11.722;2024-02-04T03:53:27;9.90;;;5.38;;
47669;SDS011;33408;52.062;11.722;2024-02-04T03:55:53;10.57;;;5.43;;
47669;SDS011;33408;52.062;11.722;2024-02-04T03:58:20;10.43;;;4.95;;
47669;SDS011;33408;52.062;11.722;2024-02-04T04:00:54;10.77;;;4.55;;
47669;SDS011;33408;52.062;11.722;2024-02-04T04:03:20;11.32;;;3.95;;
47669;SDS011;33408;52.062;11.722;2024-02-04T04:05:47;12.65;;;4.65;;
47669;SDS011;33408;52.062;11.722;2024-02-04T04:08:15;10.80;;;4.68;;
47669;SDS011;33408;52.062;11.722;2024-02-04T04:10:43;12.90;;;4.68;;
47669;SDS011;33408;52.062;11.722;2024-02-04T04:13:09;9.73;;;4.22;;
47669;SDS011;33408;52.062;11.722;2024-02-04T04:15:36;9.05;;;4.00;;
47669;SDS011;33408;52.062;11.722;2024-02-04T04:18:03;10.20;;;3.92;;
47669;SDS011;33408;52.062;11.722;2024-02-04T04:20:30;10.15;;;4.15;;
47669;SDS011;33408;52.062;11.722;2024-02-04T04:22:57;10.07;;;4.88;;
47669;SDS011;33408;52.062;11.722;2024-02-04T04:25:24;10.55;;;4.70;;
47669;SDS011;33408;52.062;11.722;2024-02-04T04:27:51;9.27;;;5.20;;
47669;SDS011;33408;52.062;11.722;2024-02-04T04:30:18;11.13;;;6.55;;
47669;SDS011;33408;52.062;11.722;2024-02-04T04:32:44;11.80;;;7.03;;
47669;SDS011;33408;52.062;11.722;2024-02-04T04:35:11;15.60;;;8.77;;
47669;SDS011;33408;52.062;11.722;2024-02-04T04:37:38;15.05;;;9.25;;
47669;SDS011;33408;52.062;11.722;2024-02-04T04:40:05;16.77;;;7.85;;
47669;SDS011;33408;52.062;11.722;2024-02-04T04:42:34;17.42;;;7.85;;
47669;SDS011;33408;52.062;11.722;2024-02-04T04:45:00;12.75;;;6.72;;
47669;SDS011;33408;52.062;11.722;2024-02-04T04:47:27;13.13;;;7.60;;
47669;SDS011;33408;52.062;11.722;2024-02-04T04:49:54;12.07;;;7.63;;
47669;SDS011;33408;52.062;11.722;2024-02-04T04:52:21;16.67;;;7.50;;
47669;SDS011;33408;52.062;11.722;2024-02-04T04:54:47;13.15;;;7.20;;
47669;SDS011;33408;52.062;11.722;2024-02-04T04:57:14;16.45;;;7.05;;
47669;SDS011;33408;52.062;11.722;2024-02-04T04:59:42;14.23;;;7.47;;
47669;SDS011;33408;52.062;11.722;2024-02-04T05:02:08;13.05;;;7.38;;
47669;SDS011;33408;52.062;11.722;2024-02-04T05:04:36;13.43;;;7.07;;
47669;SDS011;33408;52.062;11.722;2024-02-04T05:07:02;14.25;;;6.85;;
47669;SDS011;33408;52.062;11.722;2024-02-04T05:09:29;13.05;;;7.20;;
47669;SDS011;33408;52.062;11.722;2024-02-04T05:11:56;11.55;;;7.40;;
47669;SDS011;33408;52.062;11.722;2024-02-04T05:14:22;12.75;;;8.32;;
47669;SDS011;33408;52.062;11.722;2024-02-04T05:16:50;12.65;;;8.23;;
47669;SDS011;33408;52.062;11.722;2024-02-04T05:19:17;14.95;;;8.80;;
47669;SDS011;33408;52.062;11.722;2024-02-04T05:21:43;21.05;;;9.32;;
47669;SDS011;33408;52.062;11.722;2024-02-04T05:24:10;17.42;;;9.35;;
47669;SDS011;33408;52.062;11.722;2024-02-04T05:26:37;15.75;;;9.27;;
47669;SDS011;33408;52.062;11.722;2024-02-04T05:29:03;16.25;;;9.57;;
47669;SDS011;33408;52.062;11.722;2024-02-04T05:31:30;15.30;;;9.95;;
47669;SDS011;33408;52.062;11.722;2024-02-04T05:33:58;15.10;;;9.82;;
47669;SDS011;33408;52.062;11.722;2024-02-04T05:36:24;18.98;;;12.00;;
47669;SDS011;33408;52.062;11.722;2024-02-04T05:38:51;18.50;;;11.02;;
47669;SDS011;33408;52.062;11.722;2024-02-04T05:41:18;17.35;;;11.35;;
47669;SDS011;33408;52.062;11.722;2024-02-04T05:43:44;13.82;;;10.30;;
47669;SDS011;33408;52.062;11.722;2024-02-04T05:46:13;19.83;;;11.60;;
47669;SDS011;33408;52.062;11.722;2024-02-04T05:48:39;16.40;;;11.45;;
47669;SDS011;33408;52.062;11.722;2024-02-04T05:51:10;16.55;;;11.25;;
47669;SDS011;33408;52.062;11.722;2024-02-04T05:53:37;16.33;;;11.20;;
47669;SDS011;33408;52.062;11.722;2024-02-04T05:56:04;13.82;;;9.98;;
47669;SDS011;33408;52.062;11.722;2024-02-04T05:58:30;18.23;;;9.57;;
47669;SDS011;33408;52.062;11.722;2024-02-04T06:00:57;14.02;;;9.05;;
47669;SDS011;33408;52.062;11.722;2024-02-04T06:03:24;13.40;;;9.45;;
47669;SDS011;33408;52.062;11.722;2024-02-04T06:05:50;13.93;;;9.18;;
47669;SDS011;33408;52.062;11.722;2024-02-04T06:08:18;13.15;;;9.38;;
47669;SDS011;33408;52.062;11.722;2024-02-04T06:10:45;14.13;;;9.13;;
47669;SDS011;33408;52.062;11.722;2024-02-04T06:13:11;14.18;;;9.25;;
47669;SDS011;33408;52.062;11.722;2024-02-04T06:15:38;14.13;;;8.95;;
47669;SDS011;33408;52.062;11.722;2024-02-04T06:18:04;16.25;;;9.30;;
47669;SDS011;33408;52.062;11.722;2024-02-04T06:20:31;14.55;;;9.43;;
47669;SDS011;33408;52.062;11.722;2024-02-04T06:22:58;12.25;;;8.90;;
47669;SDS011;33408;52.062;11.722;2024-02-04T06:25:27;15.02;;;8.55;;
47669;SDS011;33408;52.062;11.722;2024-02-04T06:27:53;11.93;;;7.95;;
47669;SDS011;33408;52.062;11.722;2024-02-04T06:30:20;11.77;;;7.85;;
47669;SDS011;33408;52.062;11.722;2024-02-04T06:32:47;10.80;;;7.47;;
47669;SDS011;33408;52.062;11.722;2024-02-04T06:35:14;11.98;;;7.22;;
47669;SDS011;33408;52.062;11.722;2024-02-04T06:37:41;10.65;;;7.60;;
47669;SDS011;33408;52.062;11.722;2024-02-04T06:40:08;12.95;;;8.45;;
47669;SDS011;33408;52.062;11.722;2024-02-04T06:42:37;13.23;;;8.27;;
47669;SDS011;33408;52.062;11.722;2024-02-04T06:45:04;12.18;;;8.18;;
47669;SDS011;33408;52.062;11.722;2024-02-04T06:47:31;14.23;;;8.25;;
47669;SDS011;33408;52.062;11.722;2024-02-04T06:49:58;13.00;;;8.13;;
47669;SDS011;33408;52.062;11.722;2024-02-04T06:52:24;10.68;;;8.15;;
47669;SDS011;33408;52.062;11.722;2024-02-04T06:54:51;13.40;;;8.30;;
47669;SDS011;33408;52.062;11.722;2024-02-04T06:57:17;15.25;;;8.65;;
47669;SDS011;33408;52.062;11.722;2024-02-04T06:59:45;14.50;;;8.07;;
47669;SDS011;33408;52.062;11.722;2024-02-04T07:02:12;15.23;;;9.27;;
47669;SDS011;33408;52.062;11.722;2024-02-04T07:04:38;13.85;;;9.00;;
47669;SDS011;33408;52.062;11.722;2024-02-04T07:07:05;13.10;;;8.45;;
47669;SDS011;33408;52.062;11.722;2024-02-04T07:09:32;13.68;;;8.13;;
47669;SDS011;33408;52.062;11.722;2024-02-04T07:11:58;13.00;;;8.45;;
47669;SDS011;33408;52.062;11.722;2024-02-04T07:14:25;15.77;;;8.32;;
47669;SDS011;33408;52.062;11.722;2024-02-04T07:16:53;15.90;;;10.45;;
47669;SDS011;33408;52.062;11.722;2024-02-04T07:19:20;12.85;;;8.55;;
47669;SDS011;33408;52.062;11.722;2024-02-04T07:21:46;13.30;;;9.68;;
47669;SDS011;33408;52.062;11.722;2024-02-04T07:24:13;14.05;;;9.63;;
47669;SDS011;33408;52.062;11.722;2024-02-04T07:26:40;13.57;;;9.82;;
47669;SDS011;33408;52.062;11.722;2024-02-04T07:29:06;16.58;;;9.77;;
47669;SDS011;33408;52.062;11.722;2024-02-04T07:31:33;19.92;;;10.45;;
47669;SDS011;33408;52.062;11.722;2024-02-04T07:34:04;15.43;;;8.90;;
47669;SDS011;33408;52.062;11.722;2024-02-04T07:36:31;16.30;;;9.35;;
47669;SDS011;33408;52.062;11.722;2024-02-04T07:38:57;13.95;;;9.50;;
47669;SDS011;33408;52.062;11.722;2024-02-04T07:41:24;12.82;;;9.77;;
47669;SDS011;33408;52.062;11.722;2024-02-04T07:43:52;11.48;;;8.90;;
47669;SDS011;33408;52.062;11.722;2024-02-04T07:46:19;16.52;;;9.57;;
47669;SDS011;33408;52.062;11.722;2024-02-04T07:48:45;14.38;;;9.60;;
47669;SDS011;33408;52.062;11.722;2024-02-04T07:51:13;14.05;;;9.65;;
47669;SDS011;33408;52.062;11.722;2024-02-04T07:53:40;14.38;;;8.85;;
47669;SDS011;33408;52.062;11.722;2024-02-04T07:56:07;15.80;;;8.88;;
47669;SDS011;33408;52.062;11.722;2024-02-04T07:58:35;14.93;;;8.70;;
47669;SDS011;33408;52.062;11.722;2024-02-04T08:01:02;11.55;;;9.00;;
47669;SDS011;33408;52.062;11.722;2024-02-04T08:03:29;14.68;;;8.70;;
47669;SDS011;33408;52.062;11.722;2024-02-04T08:05:55;14.25;;;8.50;;
47669;SDS011;33408;52.062;11.722;2024-02-04T08:08:23;13.88;;;8.50;;
47669;SDS011;33408;52.062;11.722;2024-02-04T08:10:50;11.88;;;8.07;;
47669;SDS011;33408;52.062;11.722;2024-02-04T08:13:16;13.73;;;8.32;;
47669;SDS011;33408;52.062;11.722;2024-02-04T08:15:43;16.80;;;8.40;;
47669;SDS011;33408;52.062;11.722;2024-02-04T08:18:10;12.35;;;7.47;;
47669;SDS011;33408;52.062;11.722;2024-02-04T08:20:36;14.75;;;7.70;;
47669;SDS011;33408;52.062;11.722;2024-02-04T08:23:06;12.57;;;6.70;;
47669;SDS011;33408;52.062;11.722;2024-02-04T08:25:34;10.77;;;6.97;;
47669;SDS011;33408;52.062;11.722;2024-02-04T08:28:01;12.70;;;6.30;;
47669;SDS011;33408;52.062;11.722;2024-02-04T08:30:28;11.48;;;5.65;;
47669;SDS011;33408;52.062;11.722;2024-02-04T08:32:55;9.60;;;5.43;;
47669;SDS011;33408;52.062;11.722;2024-02-04T08:35:21;11.32;;;5.63;;
47669;SDS011;33408;52.062;11.722;2024-02-04T08:37:50;11.77;;;5.53;;
47669;SDS011;33408;52.062;11.722;2024-02-04T08:40:17;9.65;;;5.40;;
47669;SDS011;33408;52.062;11.722;2024-02-04T08:42:45;11.93;;;4.78;;
47669;SDS011;33408;52.062;11.722;2024-02-04T08:45:12;8.57;;;4.68;;
47669;SDS011;33408;52.062;11.722;2024-02-04T08:47:38;8.10;;;4.78;;
47669;SDS011;33408;52.062;11.722;2024-02-04T08:50:06;7.82;;;4.43;;
47669;SDS011;33408;52.062;11.722;2024-02-04T08:52:33;12.95;;;5.15;;
47669;SDS011;33408;52.062;11.722;2024-02-04T08:55:00;8.15;;;4.60;;
47669;SDS011;33408;52.062;11.722;2024-02-04T08:57:29;10.43;;;4.18;;
47669;SDS011;33408;52.062;11.722;2024-02-04T08:59:56;7.22;;;4.20;;
47669;SDS011;33408;52.062;11.722;2024-02-04T09:02:23;10.90;;;4.25;;
47669;SDS011;33408;52.062;11.722;2024-02-04T09:04:50;8.50;;;3.30;;
47669;SDS011;33408;52.062;11.722;2024-02-04T09:07:16;7.88;;;3.47;;
47669;SDS011;33408;52.062;11.722;2024-02-04T09:09:43;8.57;;;3.75;;
47669;SDS011;33408;52.062;11.722;2024-02-04T09:12:09;5.85;;;2.92;;
47669;SDS011;33408;52.062;11.722;2024-02-04T09:14:36;6.45;;;2.33;;
47669;SDS011;33408;52.062;11.722;2024-02-04T09:17:04;4.45;;;2.00;;
47669;SDS011;33408;52.062;11.722;2024-02-04T09:19:32;4.75;;;2.10;;
47669;SDS011;33408;52.062;11.722;2024-02-04T09:21:58;8.48;;;2.20;;
47669;SDS011;33408;52.062;11.722;2024-02-04T09:24:26;5.15;;;2.05;;
47669;SDS011;33408;52.062;11.722;2024-02-04T09:26:53;4.90;;;2.13;;
47669;SDS011;33408;52.062;11.722;2024-02-04T09:29:19;5.70;;;2.15;;
47669;SDS011;33408;52.062;11.722;2024-02-04T09:31:46;7.75;;;2.70;;
47669;SDS011;33408;52.062;11.722;2024-02-04T09:34:16;5.10;;;2.05;;
47669;SDS011;33408;52.062;11.722;2024-02-04T09:36:42;6.25;;;2.00;;
47669;SDS011;33408;52.062;11.722;2024-02-04T09:39:09;9.60;;;2.20;;
47669;SDS011;33408;52.062;11.722;2024-02-04T09:41:36;5.38;;;2.33;;
47669;SDS011;33408;52.062;11.722;2024-02-04T09:44:03;7.65;;;2.45;;
47669;SDS011;33408;52.062;11.722;2024-02-04T09:46:30;5.97;;;2.30;;
47669;SDS011;33408;52.062;11.722;2024-02-04T09:48:57;7.75;;;2.00;;
47669;SDS011;33408;52.062;11.722;2024-02-04T09:51:26;11.02;;;2.60;;
47669;SDS011;33408;52.062;11.722;2024-02-04T09:53:53;9.00;;;2.20;;
47669;SDS011;33408;52.062;11.722;2024-02-04T09:56:27;7.10;;;2.13;;
47669;SDS011;33408;52.062;11.722;2024-02-04T09:58:56;7.00;;;2.20;;
47669;SDS011;33408;52.062;11.722;2024-02-04T10:01:26;8.13;;;2.08;;
47669;SDS011;33408;52.062;11.722;2024-02-04T10:03:52;6.38;;;1.95;;
47669;SDS011;33408;52.062;11.722;2024-02-04T10:06:19;3.63;;;1.42;;
47669;SDS011;33408;52.062;11.722;2024-02-04T10:08:48;4.47;;;1.48;;
47669;SDS011;33408;52.062;11.722;2024-02-04T10:11:15;6.32;;;1.40;;
47669;SDS011;33408;52.062;11.722;2024-02-04T10:13:43;3.72;;;1.67;;
47669;SDS011;33408;52.062;11.722;2024-02-04T10:16:10;4.97;;;1.98;;
47669;SDS011;33408;52.062;11.722;2024-02-04T10:18:40;5.55;;;1.30;;
47669;SDS011;33408;52.062;11.722;2024-02-04T10:21:14;5.13;;;1.83;;
47669;SDS011;33408;52.062;11.722;2024-02-04T10:23:41;6.28;;;1.60;;
47669;SDS011;33408;52.062;11.722;2024-02-04T10:26:09;7.10;;;2.53;;
47669;SDS011;33408;52.062;11.722;2024-02-04T10:28:36;4.88;;;1.45;;
47669;SDS011;33408;52.062;11.722;2024-02-04T10:31:03;9.73;;;2.08;;
47669;SDS011;33408;52.062;11.722;2024-02-04T10:33:30;5.22;;;1.30;;
47669;SDS011;33408;52.062;11.722;2024-02-04T10:35:57;4.57;;;1.38;;
47669;SDS011;33408;52.062;11.722;2024-02-04T10:38:24;7.07;;;1.83;;
47669;SDS011;33408;52.062;11.722;2024-02-04T10:40:52;5.07;;;1.83;;
47669;SDS011;33408;52.062;11.722;2024-02-04T10:43:21;8.32;;;2.08;;
47669;SDS011;33408;52.062;11.722;2024-02-04T10:45:49;5.43;;;1.65;;
47669;SDS011;33408;52.062;11.722;2024-02-04T10:48:21;7.10;;;2.00;;
47669;SDS011;33408;52.062;11.722;2024-02-04T10:50:52;7.35;;;2.03;;
47669;SDS011;33408;52.062;11.722;2024-02-04T10:53:23;7.55;;;1.92;;
47669;SDS011;33408;52.062;11.722;2024-02-04T10:55:51;7.72;;;1.88;;
47669;SDS011;33408;52.062;11.722;2024-02-04T10:58:24;8.45;;;2.03;;
47669;SDS011;33408;52.062;11.722;2024-02-04T11:00:52;11.30;;;2.05;;
47669;SDS011;33408;52.062;11.722;2024-02-04T11:03:19;7.90;;;2.13;;
47669;SDS011;33408;52.062;11.722;2024-02-04T11:05:47;9.70;;;2.42;;
47669;SDS011;33408;52.062;11.722;2024-02-04T11:08:14;7.90;;;2.10;;
47669;SDS011;33408;52.062;11.722;2024-02-04T11:10:41;5.72;;;1.73;;
47669;SDS011;33408;52.062;11.722;2024-02-04T11:13:08;5.75;;;1.60;;
47669;SDS011;33408;52.062;11.722;2024-02-04T11:15:38;5.55;;;1.48;;
47669;SDS011;33408;52.062;11.722;2024-02-04T11:18:14;7.15;;;2.28;;
47669;SDS011;33408;52.062;11.722;2024-02-04T11:21:03;6.65;;;2.00;;
47669;SDS011;33408;52.062;11.722;2024-02-04T11:23:56;5.03;;;1.75;;
47669;SDS011;33408;52.062;11.722;2024-02-04T11:26:35;10.00;;;2.07;;
47669;SDS011;33408;52.062;11.722;2024-02-04T11:29:06;10.32;;;2.58;;
47669;SDS011;33408;52.062;11.722;2024-02-04T11:31:34;8.90;;;2.45;;
47669;SDS011;33408;52.062;11.722;2024-02-04T11:34:00;10.93;;;2.65;;
47669;SDS011;33408;52.062;11.722;2024-02-04T11:36:27;9.23;;;2.30;;
47669;SDS011;33408;52.062;11.722;2024-02-04T11:38:54;6.88;;;2.10;;
47669;SDS011;33408;52.062;11.722;2024-02-04T11:41:21;9.35;;;2.60;;
47669;SDS011;33408;52.062;11.722;2024-02-04T11:43:51;8.48;;;2.08;;
47669;SDS011;33408;52.062;11.722;2024-02-04T11:46:19;10.73;;;2.75;;
47669;SDS011;33408;52.062;11.722;2024-02-04T11:48:52;9.75;;;2.25;;
47669;SDS011;33408;52.062;11.722;2024-02-04T11:51:21;7.50;;;1.92;;
47669;SDS011;33408;52.062;11.722;2024-02-04T11:53:49;8.60;;;2.10;;
47669;SDS011;33408;52.062;11.722;2024-02-04T11:56:16;7.93;;;2.30;;
47669;SDS011;33408;52.062;11.722;2024-02-04T11:58:44;5.72;;;2.05;;
47669;SDS011;33408;52.062;11.722;2024-02-04T12:01:11;10.25;;;2.72;;
47669;SDS011;33408;52.062;11.722;2024-02-04T12:03:37;7.50;;;2.05;;
47669;SDS011;33408;52.062;11.722;2024-02-04T12:06:05;8.38;;;2.47;;
47669;SDS011;33408;52.062;11.722;2024-02-04T12:08:35;8.10;;;2.17;;
47669;SDS011;33408;52.062;11.722;2024-02-04T12:11:03;10.50;;;3.25;;
47669;SDS011;33408;52.062;11.722;2024-02-04T12:13:30;8.02;;;2.38;;
47669;SDS011;33408;52.062;11.722;2024-02-04T12:15:57;12.68;;;3.35;;
47669;SDS011;33408;52.062;11.722;2024-02-04T12:18:23;12.45;;;3.72;;
47669;SDS011;33408;52.062;11.722;2024-02-04T12:20:50;7.85;;;2.15;;
47669;SDS011;33408;52.062;11.722;2024-02-04T12:23:19;28.67;;;4.10;;
47669;SDS011;33408;52.062;11.722;2024-02-04T12:25:46;10.90;;;3.05;;
47669;SDS011;33408;52.062;11.722;2024-02-04T12:28:13;8.05;;;2.10;;
47669;SDS011;33408;52.062;11.722;2024-02-04T12:30:40;9.82;;;2.88;;
47669;SDS011;33408;52.062;11.722;2024-02-04T12:33:07;6.82;;;1.90;;
47669;SDS011;33408;52.062;11.722;2024-02-04T12:35:33;8.93;;;2.33;;
47669;SDS011;33408;52.062;11.722;2024-02-04T12:38:00;8.15;;;2.50;;
47669;SDS011;33408;52.062;11.722;2024-02-04T12:40:30;6.93;;;1.98;;
47669;SDS011;33408;52.062;11.722;2024-02-04T12:42:57;5.32;;;2.08;;
47669;SDS011;33408;52.062;11.722;2024-02-04T12:45:26;12.25;;;2.53;;
47669;SDS011;33408;52.062;11.722;2024-02-04T12:47:54;7.43;;;2.40;;
47669;SDS011;33408;52.062;11.722;2024-02-04T12:50:22;8.38;;;2.38;;
47669;SDS011;33408;52.062;11.722;2024-02-04T12:53:01;6.13;;;2.13;;
47669;SDS011;33408;52.062;11.722;2024-02-04T12:55:31;6.90;;;2.70;;
47669;SDS011;33408;52.062;11.722;2024-02-04T12:58:02;7.68;;;2.40;;
47669;SDS011;33408;52.062;11.722;2024-02-04T13:00:30;8.25;;;2.30;;
47669;SDS011;33408;52.062;11.722;2024-02-04T13:02:57;5.88;;;2.22;;
47669;SDS011;33408;52.062;11.722;2024-02-04T13:05:25;9.07;;;2.35;;
47669;SDS011;33408;52.062;11.722;2024-02-04T13:07:54;10.55;;;2.58;;
47669;SDS011;33408;52.062;11.722;2024-02-04T13:10:22;5.93;;;1.92;;
47669;SDS011;33408;52.062;11.722;2024-02-04T13:13:01;9.07;;;1.83;;
47669;SDS011;33408;52.062;11.722;2024-02-04T13:15:29;6.68;;;2.17;;
47669;SDS011;33408;52.062;11.722;2024-02-04T13:17:58;6.40;;;2.20;;
47669;SDS011;33408;52.062;11.722;2024-02-04T13:20:26;9.77;;;2.60;;
47669;SDS011;33408;52.062;11.722;2024-02-04T13:22:53;9.70;;;2.63;;
47669;SDS011;33408;52.062;11.722;2024-02-04T13:25:19;7.50;;;2.53;;
47669;SDS011;33408;52.062;11.722;2024-02-04T13:27:46;8.00;;;2.60;;
47669;SDS011;33408;52.062;11.722;2024-02-04T13:30:15;8.52;;;2.30;;
47669;SDS011;33408;52.062;11.722;2024-02-04T13:32:42;7.47;;;2.35;;
47669;SDS011;33408;52.062;11.722;2024-02-04T13:35:09;8.10;;;2.58;;
47669;SDS011;33408;52.062;11.722;2024-02-04T13:37:36;9.32;;;2.25;;
47669;SDS011;33408;52.062;11.722;2024-02-04T13:40:05;8.55;;;2.25;;
47669;SDS011;33408;52.062;11.722;2024-02-04T13:42:34;6.97;;;2.35;;
47669;SDS011;33408;52.062;11.722;2024-02-04T13:45:01;10.43;;;2.75;;
47669;SDS011;33408;52.062;11.722;2024-02-04T13:47:29;7.40;;;1.83;;
47669;SDS011;33408;52.062;11.722;2024-02-04T13:49:56;7.75;;;2.47;;
47669;SDS011;33408;52.062;11.722;2024-02-04T13:52:22;9.45;;;1.88;;
47669;SDS011;33408;52.062;11.722;2024-02-04T13:54:49;6.10;;;2.08;;
47669;SDS011;33408;52.062;11.722;2024-02-04T13:57:16;9.15;;;2.20;;
47669;SDS011;33408;52.062;11.722;2024-02-04T13:59:42;7.47;;;1.90;;
47669;SDS011;33408;52.062;11.722;2024-02-04T14:02:09;9.10;;;2.17;;
47669;SDS011;33408;52.062;11.722;2024-02-04T14:04:37;5.57;;;1.90;;
47669;SDS011;33408;52.062;11.722;2024-02-04T14:07:04;6.63;;;1.52;;
47669;SDS011;33408;52.062;11.722;2024-02-04T14:09:30;8.77;;;2.00;;
47669;SDS011;33408;52.062;11.722;2024-02-04T14:11:57;9.18;;;2.53;;
47669;SDS011;33408;52.062;11.722;2024-02-04T14:14:23;7.95;;;2.17;;
47669;SDS011;33408;52.062;11.722;2024-02-04T14:16:50;7.03;;;2.00;;
47669;SDS011;33408;52.062;11.722;2024-02-04T14:19:17;5.32;;;1.35;;
47669;SDS011;33408;52.062;11.722;2024-02-04T14:21:45;6.75;;;1.98;;
47669;SDS011;33408;52.062;11.722;2024-02-04T14:24:11;10.70;;;2.40;;
47669;SDS011;33408;52.062;11.722;2024-02-04T14:26:38;8.35;;;1.58;;
47669;SDS011;33408;52.062;11.722;2024-02-04T14:29:06;7.40;;;2.13;;
47669;SDS011;33408;52.062;11.722;2024-02-04T14:31:33;8.77;;;2.13;;
47669;SDS011;33408;52.062;11.722;2024-02-04T14:33:59;5.38;;;1.58;;